createdAt,value
2019-01-08T00:00:18.711Z,1.7
2019-01-08T00:02:19.418Z,1.8
2019-01-08T00:04:19.130Z,1.4
2019-01-08T00:06:18.511Z,1.6
2019-01-08T00:08:19.215Z,1.6
2019-01-08T00:10:19.475Z,1.8
2019-01-08T00:12:19.197Z,2.3
2019-01-08T00:14:18.907Z,1.2
2019-01-08T00:16:19.203Z,1.7
2019-01-08T00:18:19.017Z,1.3
2019-01-08T00:20:18.729Z,1.8
2019-01-08T00:22:19.445Z,1.6
2019-01-08T00:24:19.151Z,1.8
2019-01-08T00:26:19.057Z,1.6
2019-01-08T00:28:18.790Z,1.5
2019-01-08T00:30:18.495Z,1.6
2019-01-08T00:32:19.202Z,1.7
2019-01-08T00:34:18.911Z,1.2
2019-01-08T00:36:19.248Z,1.3
2019-01-08T00:38:18.969Z,1
2019-01-08T00:40:19.233Z,1.6
2019-01-08T00:42:18.898Z,1.2
2019-01-08T00:44:18.615Z,1.7
2019-01-08T00:46:18.914Z,1.5
2019-01-08T00:48:18.639Z,1
2019-01-08T00:50:19.369Z,0.8
2019-01-08T00:52:19.092Z,1.1
2019-01-08T00:54:18.799Z,1.1
2019-01-08T00:56:19.172Z,1.5
2019-01-08T00:58:18.887Z,1.5
2019-01-08T01:00:18.570Z,1.3
2019-01-08T01:02:19.287Z,1
2019-01-08T01:04:18.961Z,1.3
2019-01-08T01:06:19.265Z,1.1
2019-01-08T01:08:18.964Z,1.3
2019-01-08T01:10:19.212Z,1.3
2019-01-08T01:12:18.872Z,0.9
2019-01-08T01:14:18.583Z,0.9
2019-01-08T01:16:18.906Z,1.4
2019-01-08T01:18:18.689Z,1.6
2019-01-08T01:20:19.413Z,1
2019-01-08T01:22:19.131Z,1
2019-01-08T01:24:18.825Z,1.1
2019-01-08T01:26:19.206Z,0.8
2019-01-08T01:28:18.919Z,1.1
2019-01-08T01:30:18.588Z,1.4
2019-01-08T01:32:19.298Z,0.9
2019-01-08T01:34:18.968Z,1.3
2019-01-08T01:36:19.280Z,1
2019-01-08T01:38:18.993Z,1.4
2019-01-08T01:40:19.220Z,1.1
2019-01-08T01:42:18.878Z,0.9
2019-01-08T01:44:18.575Z,1.1
2019-01-08T01:46:18.898Z,1.4
2019-01-08T01:48:18.545Z,1.1
2019-01-08T01:50:19.282Z,2
2019-01-08T01:52:18.968Z,1.1
2019-01-08T01:54:18.685Z,1.4
2019-01-08T01:56:19.019Z,1
2019-01-08T01:58:18.744Z,1.1
2019-01-08T02:00:19.487Z,1.3
2019-01-08T02:02:19.198Z,1.4
2019-01-08T02:04:18.906Z,0.8
2019-01-08T02:06:19.226Z,0.8
2019-01-08T02:08:18.940Z,1.1
2019-01-08T02:10:19.192Z,1.3
2019-01-08T02:12:18.862Z,1.6
2019-01-08T02:14:18.565Z,1.1
2019-01-08T02:16:18.900Z,1.3
2019-01-08T02:18:18.697Z,1.3
2019-01-08T02:20:19.426Z,0.9
2019-01-08T02:22:19.138Z,1
2019-01-08T02:24:18.828Z,1
2019-01-08T02:26:18.724Z,1.4
2019-01-08T02:28:19.382Z,1.6
2019-01-08T02:30:19.132Z,1.1
2019-01-08T02:32:18.784Z,1.1
2019-01-08T02:34:18.510Z,1.2
2019-01-08T02:36:18.894Z,1.3
2019-01-08T02:38:18.606Z,1.2
2019-01-08T02:40:18.861Z,0.9
2019-01-08T02:42:18.524Z,1.2
2019-01-08T02:44:19.318Z,1.5
2019-01-08T02:46:18.951Z,0.8
2019-01-08T02:48:18.956Z,1.2
2019-01-08T02:50:18.687Z,1.9
2019-01-08T02:52:19.357Z,1.3
2019-01-08T02:54:19.105Z,1
2019-01-08T02:56:19.099Z,1.2
2019-01-08T02:58:18.811Z,1.3
2019-01-08T03:00:18.633Z,1.5
2019-01-08T03:02:19.344Z,1.3
2019-01-08T03:04:19.056Z,1.2
2019-01-08T03:06:18.886Z,1.1
2019-01-08T03:08:18.609Z,1
2019-01-08T03:10:18.756Z,0.9
2019-01-08T03:12:19.459Z,1.2
2019-01-08T03:14:19.187Z,1.2
2019-01-08T03:16:18.571Z,1.3
2019-01-08T03:18:19.303Z,1.4
2019-01-08T03:20:19.044Z,1.3
2019-01-08T03:22:18.751Z,1
2019-01-08T03:24:19.465Z,1.3
2019-01-08T03:26:18.885Z,0.7
2019-01-08T03:28:18.576Z,1.1
2019-01-08T03:30:19.276Z,1
2019-01-08T03:32:18.997Z,0.9
2019-01-08T03:34:18.735Z,1.4
2019-01-08T03:36:19.150Z,1
2019-01-08T03:38:18.805Z,1.4
2019-01-08T03:40:18.962Z,1.1
2019-01-08T03:42:18.683Z,0.7
2019-01-08T03:44:19.392Z,1.5
2019-01-08T03:46:18.832Z,1.4
2019-01-08T03:48:18.600Z,0.9
2019-01-08T03:50:19.338Z,0.5
2019-01-08T03:52:19.008Z,0.9
2019-01-08T03:54:18.718Z,1.2
2019-01-08T03:56:19.021Z,0.9
2019-01-08T03:58:18.728Z,0.9
2019-01-08T04:00:19.469Z,1.4
2019-01-08T04:02:19.182Z,0.8
2019-01-08T04:04:18.902Z,1.2
2019-01-08T04:06:19.227Z,1.1
2019-01-08T04:08:18.949Z,1.2
2019-01-08T04:10:19.190Z,0.9
2019-01-08T04:12:18.862Z,0.8
2019-01-08T04:14:18.574Z,0.9
2019-01-08T04:16:18.912Z,0.8
2019-01-08T04:18:18.700Z,0.9
2019-01-08T04:20:18.523Z,1.2
2019-01-08T04:22:19.241Z,0.9
2019-01-08T04:24:18.984Z,0.7
2019-01-08T04:26:19.399Z,0.8
2019-01-08T04:28:19.111Z,0.9
2019-01-08T04:30:18.823Z,1
2019-01-08T04:32:18.538Z,0.8
2019-01-08T04:34:19.255Z,0.5
2019-01-08T04:36:18.687Z,0.7
2019-01-08T04:38:19.391Z,1.5
2019-01-08T04:40:18.607Z,0.9
2019-01-08T04:42:19.264Z,0.8
2019-01-08T04:44:18.965Z,1
2019-01-08T04:46:19.325Z,0.6
2019-01-08T04:48:19.037Z,0.5
2019-01-08T04:50:18.748Z,0.8
2019-01-08T04:52:19.464Z,1
2019-01-08T04:54:19.197Z,0.9
2019-01-08T04:56:18.590Z,0.6
2019-01-08T04:58:19.292Z,0.9
2019-01-08T05:00:19.037Z,0.5
2019-01-08T05:02:18.723Z,0.6
2019-01-08T05:04:19.430Z,0.3
2019-01-08T05:06:18.771Z,0.8
2019-01-08T05:08:19.443Z,0.5
2019-01-08T05:10:18.650Z,0.7
2019-01-08T05:12:19.298Z,0.5
2019-01-08T05:14:19.003Z,0.9
2019-01-08T05:16:19.361Z,0.8
2019-01-08T05:18:19.152Z,0.6
2019-01-08T05:20:18.823Z,0.8
2019-01-08T05:22:18.532Z,0.6
2019-01-08T05:24:19.206Z,0.6
2019-01-08T05:26:19.076Z,0.9
2019-01-08T05:28:18.794Z,0.8
2019-01-08T05:30:18.497Z,0.8
2019-01-08T05:32:19.208Z,0.6
2019-01-08T05:34:18.906Z,0.5
2019-01-08T05:36:19.241Z,0.5
2019-01-08T05:38:18.974Z,0.5
2019-01-08T05:40:19.227Z,0.9
2019-01-08T05:42:18.951Z,0.7
2019-01-08T05:44:18.665Z,0.7
2019-01-08T05:46:19.024Z,1.1
2019-01-08T05:48:18.729Z,1
2019-01-08T05:50:19.439Z,0.7
2019-01-08T05:52:19.163Z,0.7
2019-01-08T05:54:18.885Z,0.5
2019-01-08T05:56:19.223Z,0.5
2019-01-08T05:58:18.927Z,1.4
2019-01-08T06:00:18.666Z,0.5
2019-01-08T06:02:19.384Z,0.7
2019-01-08T06:04:19.109Z,0.5
2019-01-08T06:06:18.475Z,1.1
2019-01-08T06:08:19.187Z,0.7
2019-01-08T06:10:19.402Z,1.3
2019-01-08T06:12:19.129Z,1
2019-01-08T06:14:18.791Z,1
2019-01-08T06:16:19.240Z,0.5
2019-01-08T06:18:19.018Z,1.4
2019-01-08T06:20:18.722Z,0.9
2019-01-08T06:22:19.480Z,1.3
2019-01-08T06:24:19.174Z,0.8
2019-01-08T06:26:19.429Z,1.2
2019-01-08T06:28:19.137Z,1
2019-01-08T06:30:24.651Z,0.6
2019-01-08T06:32:18.692Z,0.8
2019-01-08T06:34:19.371Z,0.8
2019-01-08T06:36:18.770Z,0.7
2019-01-08T06:38:19.459Z,0.8
2019-01-08T06:40:18.633Z,1.4
2019-01-08T06:42:19.350Z,1
2019-01-08T06:44:19.041Z,1.5
2019-01-08T06:46:19.381Z,0.6
2019-01-08T06:48:19.121Z,0.3
2019-01-08T06:50:18.801Z,1.2
2019-01-08T06:52:18.523Z,1
2019-01-08T06:54:19.231Z,0.7
2019-01-08T06:56:18.568Z,1.2
2019-01-08T06:58:19.275Z,0.7
2019-01-08T07:00:19.012Z,0.6
2019-01-08T07:02:18.699Z,1
2019-01-08T07:04:19.381Z,1.1
2019-01-08T07:06:18.739Z,1.6
2019-01-08T07:08:19.427Z,0.9
2019-01-08T07:10:18.607Z,1.4
2019-01-08T07:12:19.264Z,1.3
2019-01-08T07:14:18.977Z,0.6
2019-01-08T07:16:19.336Z,1.3
2019-01-08T07:18:19.125Z,0.8
2019-01-08T07:20:18.799Z,0.7
2019-01-08T07:22:18.513Z,0.9
2019-01-08T07:24:19.193Z,0.9
2019-01-08T07:26:18.585Z,1.2
2019-01-08T07:28:19.291Z,1.4
2019-01-08T07:30:19.060Z,1.1
2019-01-08T07:32:18.749Z,1.1
2019-01-08T07:34:19.462Z,0.8
2019-01-08T07:36:18.793Z,1.2
2019-01-08T07:38:18.511Z,0.8
2019-01-08T07:40:18.651Z,1.2
2019-01-08T07:42:19.304Z,1.2
2019-01-08T07:44:19.015Z,0.6
2019-01-08T07:46:19.355Z,0.8
2019-01-08T07:48:19.054Z,0.7
2019-01-08T07:50:18.762Z,1.7
2019-01-08T07:52:19.466Z,0.8
2019-01-08T07:54:19.178Z,0.9
2019-01-08T07:56:18.576Z,0.4
2019-01-08T07:58:19.278Z,0.9
2019-01-08T08:00:19.006Z,1.4
2019-01-08T08:02:18.693Z,1.2
2019-01-08T08:04:19.420Z,1.6
2019-01-08T08:06:19.251Z,0.5
2019-01-08T08:08:18.962Z,0.5
2019-01-08T08:10:19.211Z,1
2019-01-08T08:12:18.882Z,0.6
2019-01-08T08:14:18.596Z,1
2019-01-08T08:16:18.952Z,1.2
2019-01-08T08:18:18.737Z,1.1
2019-01-08T08:20:19.460Z,0.6
2019-01-08T08:22:19.186Z,0.7
2019-01-08T08:24:18.864Z,1
2019-01-08T08:26:19.220Z,0.5
2019-01-08T08:28:18.918Z,0.8
2019-01-08T08:30:18.589Z,0.8
2019-01-08T08:32:19.287Z,0.8
2019-01-08T08:34:18.962Z,0.6
2019-01-08T08:36:18.545Z,0.8
2019-01-08T08:38:19.337Z,1.3
2019-01-08T08:40:18.584Z,0.6
2019-01-08T08:42:19.249Z,1.2
2019-01-08T08:44:18.964Z,1.1
2019-01-08T08:46:19.365Z,0.3
2019-01-08T08:48:19.085Z,1.1
2019-01-08T08:50:18.778Z,1
2019-01-08T08:52:18.512Z,1
2019-01-08T08:54:19.201Z,0.7
2019-01-08T08:56:19.075Z,0.9
2019-01-08T08:58:18.807Z,1.9
2019-01-08T09:00:18.505Z,0.6
2019-01-08T09:02:19.207Z,0.6
2019-01-08T09:04:18.916Z,1
2019-01-08T09:06:19.250Z,0.7
2019-01-08T09:08:18.980Z,0.9
2019-01-08T09:10:19.217Z,1
2019-01-08T09:12:18.897Z,0.8
2019-01-08T09:14:18.619Z,0.7
2019-01-08T09:16:19.456Z,0.9
2019-01-08T09:18:19.210Z,1
2019-01-08T09:20:18.946Z,1
2019-01-08T09:22:18.618Z,0.4
2019-01-08T09:24:19.353Z,1
2019-01-08T09:26:18.782Z,1.4
2019-01-08T09:28:18.512Z,1.3
2019-01-08T09:30:19.230Z,1.4
2019-01-08T09:32:18.950Z,1.4
2019-01-08T09:34:18.625Z,0.6
2019-01-08T09:36:19.011Z,0.5
2019-01-08T09:38:18.717Z,0.6
2019-01-08T09:40:18.926Z,0.5
2019-01-08T09:42:18.637Z,0.5
2019-01-08T09:44:19.344Z,0.9
2019-01-08T09:46:18.771Z,2.2
2019-01-08T09:48:19.468Z,0.6
2019-01-08T09:50:19.204Z,1
2019-01-08T09:52:18.905Z,0.8
2019-01-08T09:54:18.613Z,0.9
2019-01-08T09:56:18.989Z,0.5
2019-01-08T09:58:18.701Z,1.6
2019-01-08T10:00:19.442Z,0.7
2019-01-08T10:02:19.124Z,0.7
2019-01-08T10:04:18.846Z,0.4
2019-01-08T10:06:19.201Z,0.7
2019-01-08T10:08:18.914Z,0.4
2019-01-08T10:10:19.166Z,0.7
2019-01-08T10:12:18.849Z,0.4
2019-01-08T10:14:18.561Z,0.4
2019-01-08T10:16:18.883Z,0.7
2019-01-08T10:18:18.662Z,1.4
2019-01-08T10:20:19.391Z,0.4
2019-01-08T10:22:19.110Z,0.5
2019-01-08T10:24:18.803Z,0.5
2019-01-08T10:26:19.183Z,0.7
2019-01-08T10:28:18.888Z,0.8
2019-01-08T10:30:18.628Z,1
2019-01-08T10:32:19.333Z,0.7
2019-01-08T10:34:18.996Z,0.6
2019-01-08T10:36:19.364Z,0.6
2019-01-08T10:38:19.054Z,0.4
2019-01-08T10:40:19.307Z,0.5
2019-01-08T10:42:19.031Z,0.7
2019-01-08T10:44:18.725Z,0.2
2019-01-08T10:46:19.140Z,0.4
2019-01-08T10:48:18.868Z,0.5
2019-01-08T10:50:18.604Z,0.2
2019-01-08T10:52:19.302Z,0.7
2019-01-08T10:54:19.016Z,0.7
2019-01-08T10:56:18.498Z,0.3
2019-01-08T10:58:19.209Z,0.6
2019-01-08T11:00:18.897Z,0.3
2019-01-08T11:02:18.614Z,0.5
2019-01-08T11:04:19.312Z,0.9
2019-01-08T11:06:18.730Z,1.1
2019-01-08T11:08:19.427Z,0.4
2019-01-08T11:10:18.661Z,0.1
2019-01-08T11:12:19.375Z,0.6
2019-01-08T11:14:19.083Z,0.5
2019-01-08T11:16:19.459Z,0.4
2019-01-08T11:18:19.212Z,0.1
2019-01-08T11:20:18.975Z,0.3
2019-01-08T11:22:18.642Z,0.3
2019-01-08T11:24:19.291Z,0.3
2019-01-08T11:26:18.631Z,0.7
2019-01-08T11:28:19.317Z,0.3
2019-01-08T11:30:19.059Z,0.3
2019-01-08T11:32:18.762Z,0.6
2019-01-08T11:34:19.492Z,0.4
2019-01-08T11:36:18.988Z,0.8
2019-01-08T11:38:18.680Z,0.2
2019-01-08T11:40:18.908Z,0.5
2019-01-08T11:42:18.633Z,0.8
2019-01-08T11:44:19.358Z,0.7
2019-01-08T11:46:18.768Z,0.3
2019-01-08T11:48:19.472Z,0.6
2019-01-08T11:50:19.225Z,0.2
2019-01-08T11:52:18.937Z,0.4
2019-01-08T11:54:18.651Z,0.3
2019-01-08T11:56:19.021Z,0.2
2019-01-08T11:58:18.740Z,0.3
2019-01-08T12:00:19.488Z,0.4
2019-01-08T12:02:19.203Z,0.4
2019-01-08T12:04:18.918Z,0.2
2019-01-08T12:06:19.269Z,0.7
2019-01-08T12:08:18.985Z,0.6
2019-01-08T12:10:19.254Z,0.3
2019-01-08T12:12:18.962Z,0.5
2019-01-08T12:14:18.667Z,0.8
2019-01-08T12:16:19.091Z,0.4
2019-01-08T12:18:18.845Z,0.5
2019-01-08T12:20:18.582Z,0.3
2019-01-08T12:22:19.284Z,0.2
2019-01-08T12:24:19.006Z,1
2019-01-08T12:26:19.428Z,0.3
2019-01-08T12:28:19.146Z,0.3
2019-01-08T12:30:18.868Z,0.4
2019-01-08T12:32:18.571Z,0.4
2019-01-08T12:34:19.294Z,0.7
2019-01-08T12:36:18.693Z,0.5
2019-01-08T12:38:19.390Z,0.4
2019-01-08T12:40:18.632Z,0.4
2019-01-08T12:42:19.277Z,0.7
2019-01-08T12:44:18.982Z,0.3
2019-01-08T12:46:19.369Z,1
2019-01-08T12:48:19.099Z,0.9
2019-01-08T12:50:18.790Z,0.6
2019-01-08T12:52:18.528Z,0.7
2019-01-08T12:54:19.222Z,0.5
2019-01-08T12:56:18.593Z,1
2019-01-08T12:58:19.294Z,0.6
2019-01-08T13:00:19.054Z,0.6
2019-01-08T13:02:18.750Z,0.5
2019-01-08T13:04:19.475Z,0.2
2019-01-08T13:06:18.866Z,0.5
2019-01-08T13:08:18.579Z,0.4
2019-01-08T13:10:18.746Z,0.5
2019-01-08T13:12:19.464Z,0.4
2019-01-08T13:14:19.172Z,0.3
2019-01-08T13:16:18.527Z,0.7
2019-01-08T13:18:19.261Z,0.5
2019-01-08T13:20:18.991Z,0.8
2019-01-08T13:22:18.700Z,0.1
2019-01-08T13:24:19.410Z,1.2
2019-01-08T13:26:18.776Z,1.7
2019-01-08T13:28:19.485Z,0.8
2019-01-08T13:30:19.205Z,1.4
2019-01-08T13:32:23.182Z,0.6
2019-01-08T13:34:19.138Z,2
2019-01-08T13:36:19.473Z,2
2019-01-08T13:38:19.205Z,1.9
2019-01-08T13:40:19.346Z,0.8
2019-01-08T13:42:19.071Z,0.7
2019-01-08T13:44:18.742Z,0.5
2019-01-08T13:46:19.135Z,0.4
2019-01-08T13:48:18.822Z,0.8
2019-01-08T13:50:18.564Z,0.4
2019-01-08T13:52:19.274Z,0.5
2019-01-08T13:54:18.988Z,0.2
2019-01-08T13:56:19.328Z,0.6
2019-01-08T13:58:19.049Z,0.4
2019-01-08T14:00:18.783Z,0.4
2019-01-08T14:02:18.495Z,0.4
2019-01-08T14:04:19.201Z,0.5
2019-01-08T14:06:18.571Z,0.5
2019-01-08T14:08:19.283Z,0.8
2019-01-08T14:10:18.540Z,0.2
2019-01-08T14:12:19.215Z,0.1
2019-01-08T14:14:18.933Z,0.2
2019-01-08T14:16:19.320Z,0.5
2019-01-08T14:18:19.111Z,0.2
2019-01-08T14:20:18.789Z,0.5
2019-01-08T14:22:18.519Z,0.5
2019-01-08T14:24:19.204Z,0.5
2019-01-08T14:26:18.572Z,0.6
2019-01-08T14:28:19.275Z,0.8
2019-01-08T14:30:19.010Z,0.3
2019-01-08T14:32:18.708Z,0.5
2019-01-08T14:34:19.378Z,0.3
2019-01-08T14:36:19.283Z,0.3
2019-01-08T14:38:19.005Z,1.1
2019-01-08T14:40:19.240Z,0.5
2019-01-08T14:42:18.945Z,0.4
2019-01-08T14:44:18.659Z,0.5
2019-01-08T14:46:18.931Z,1.4
2019-01-08T14:48:18.645Z,1.8
2019-01-08T14:50:19.376Z,0.9
2019-01-08T14:52:19.096Z,1.4
2019-01-08T14:54:18.819Z,0.4
2019-01-08T14:56:19.196Z,0.7
2019-01-08T14:58:18.912Z,1.2
2019-01-08T15:00:18.591Z,0.9
2019-01-08T15:02:19.311Z,0.9
2019-01-08T15:04:18.982Z,1.3
2019-01-08T15:06:19.353Z,0.8
2019-01-08T15:08:19.059Z,1
2019-01-08T15:10:19.276Z,1.2
2019-01-08T15:12:18.990Z,1.1
2019-01-08T15:14:18.691Z,1.9
2019-01-08T15:16:19.105Z,1.6
2019-01-08T15:18:18.857Z,1
2019-01-08T15:20:18.597Z,1.3
2019-01-08T15:22:19.291Z,0.8
2019-01-08T15:24:19.002Z,0.7
2019-01-08T15:26:19.395Z,1.3
2019-01-08T15:28:19.117Z,0.9
2019-01-08T15:30:18.834Z,1.9
2019-01-08T15:32:18.546Z,1.2
2019-01-08T15:34:19.273Z,1.2
2019-01-08T15:36:18.676Z,2
2019-01-08T15:38:19.387Z,1.5
2019-01-08T15:40:18.621Z,1.6
2019-01-08T15:42:19.451Z,1.5
2019-01-08T15:44:19.127Z,1.7
2019-01-08T15:46:18.527Z,1.6
2019-01-08T15:48:19.206Z,2.2
2019-01-08T15:50:18.962Z,0.9
2019-01-08T15:52:18.634Z,1.5
2019-01-08T15:54:19.288Z,3.3
2019-01-08T15:56:18.627Z,1.4
2019-01-08T15:58:19.307Z,2.2
2019-01-08T16:00:19.040Z,2
2019-01-08T16:02:18.722Z,1.8
2019-01-08T16:04:19.385Z,2.7
2019-01-08T16:06:18.753Z,1.8
2019-01-08T16:08:19.426Z,2.6
2019-01-08T16:10:18.634Z,2.2
2019-01-08T16:12:19.338Z,1.9
2019-01-08T16:14:19.034Z,2.1
2019-01-08T16:16:19.375Z,2.4
2019-01-08T16:18:19.173Z,1.4
2019-01-08T16:20:18.838Z,1.4
2019-01-08T16:22:18.545Z,1
2019-01-08T16:24:19.238Z,0.9
2019-01-08T16:26:18.605Z,1.8
2019-01-08T16:28:19.308Z,1.1
2019-01-08T16:30:20.140Z,1.1
2019-01-08T16:32:18.972Z,0.3
2019-01-08T16:34:18.634Z,2.3
2019-01-08T16:36:19.015Z,0.9
2019-01-08T16:38:18.698Z,1.2
2019-01-08T16:40:18.946Z,1.7
2019-01-08T16:42:18.660Z,0.6
2019-01-08T16:44:19.368Z,1.3
2019-01-08T16:46:18.799Z,0.8
2019-01-08T16:48:18.492Z,0.6
2019-01-08T16:50:19.258Z,0.9
2019-01-08T16:52:18.954Z,1.5
2019-01-08T16:54:18.665Z,0.6
2019-01-08T16:56:19.747Z,0.8
2019-01-08T16:58:18.586Z,0.2
2019-01-08T17:00:19.280Z,0.9
2019-01-08T17:02:18.996Z,0.7
2019-01-08T17:04:18.719Z,0.8
2019-01-08T17:06:19.081Z,0.6
2019-01-08T17:08:18.748Z,1.1
2019-01-08T17:10:18.950Z,0.4
2019-01-08T17:12:18.648Z,0.7
2019-01-08T17:14:19.374Z,0.2
2019-01-08T17:16:18.763Z,0.9
2019-01-08T17:18:18.506Z,0.6
2019-01-08T17:20:19.241Z,0.3
2019-01-08T17:22:18.933Z,0.3
2019-01-08T17:24:18.645Z,0.5
2019-01-08T17:26:19.019Z,0.8
2019-01-08T17:28:18.720Z,1.2
2019-01-08T17:30:19.449Z,0.6
2019-01-08T17:32:19.114Z,0.8
2019-01-08T17:34:18.823Z,0.7
2019-01-08T17:36:19.196Z,0.4
2019-01-08T17:38:18.901Z,2.4
2019-01-08T17:40:19.006Z,1.2
2019-01-08T17:42:18.730Z,0.1
2019-01-08T17:44:19.430Z,0.6
2019-01-08T17:46:19.116Z,0.1
2019-01-08T17:48:18.811Z,0.2
2019-01-08T17:50:18.555Z,0.3
2019-01-08T17:52:19.262Z,0.4
2019-01-08T17:54:19.025Z,0.4
2019-01-08T17:56:18.976Z,1.2
2019-01-08T17:58:18.652Z,0.6
2019-01-08T18:00:19.386Z,0.3
2019-01-08T18:02:19.067Z,0.7
2019-01-08T18:04:18.779Z,0.3
2019-01-08T18:06:18.488Z,0.7
2019-01-08T18:08:19.193Z,0.6
2019-01-08T18:10:19.382Z,0.3
2019-01-08T18:12:19.083Z,0.5
2019-01-08T18:14:18.757Z,0.6
2019-01-08T18:16:19.470Z,0.3
2019-01-08T18:18:19.223Z,0.7
2019-01-08T18:20:18.945Z,1.2
2019-01-08T18:22:18.609Z,0.3
2019-01-08T18:24:19.254Z,0.3
2019-01-08T18:26:18.606Z,0.2
2019-01-08T18:28:19.294Z,0.1
2019-01-08T18:30:19.030Z,0.5
2019-01-08T18:32:18.717Z,0.2
2019-01-08T18:34:19.434Z,0.2
2019-01-08T18:36:18.766Z,0.3
2019-01-08T18:38:19.432Z,0.2
2019-01-08T18:40:18.638Z,0.5
2019-01-08T18:42:19.338Z,0.3
2019-01-08T18:44:19.038Z,0.5
2019-01-08T18:46:19.354Z,0.2
2019-01-08T18:48:19.045Z,1
2019-01-08T18:50:18.740Z,0.7
2019-01-08T18:52:19.449Z,0.1
2019-01-08T18:54:19.144Z,0.8
2019-01-08T18:56:18.529Z,0.8
2019-01-08T18:58:19.223Z,0.5
2019-01-08T19:00:20.137Z,0.5
2019-01-08T19:02:18.998Z,0.6
2019-01-08T19:04:18.706Z,0.6
2019-01-08T19:06:19.076Z,0.3
2019-01-08T19:08:18.876Z,0.3
2019-01-08T19:10:18.991Z,0.5
2019-01-08T19:12:18.703Z,0.3
2019-01-08T19:14:19.399Z,0.2
2019-01-08T19:16:18.790Z,0.4
2019-01-08T19:18:18.524Z,0.2
2019-01-08T19:20:19.271Z,0.5
2019-01-08T19:22:18.957Z,0.3
2019-01-08T19:24:18.686Z,0.5
2019-01-08T19:26:19.028Z,0.1
2019-01-08T19:28:18.740Z,0.5
2019-01-08T19:30:19.485Z,0.2
2019-01-08T19:32:19.196Z,0.4
2019-01-08T19:34:18.889Z,0.2
2019-01-08T19:36:19.217Z,0.3
2019-01-08T19:38:18.918Z,0.5
2019-01-08T19:40:19.006Z,0.3
2019-01-08T19:42:18.705Z,0.6
2019-01-08T19:44:19.406Z,0.3
2019-01-08T19:46:18.788Z,0.4
2019-01-08T19:48:18.457Z,0.2
2019-01-08T19:50:19.146Z,0.6
2019-01-08T19:52:18.853Z,0.5
2019-01-08T19:54:18.520Z,0.2
2019-01-08T19:56:19.403Z,0.5
2019-01-08T19:58:19.113Z,0.4
2019-01-08T20:00:18.823Z,0.4
2019-01-08T20:02:18.541Z,0.3
2019-01-08T20:04:19.239Z,0.4
2019-01-08T20:06:19.200Z,0.6
2019-01-08T20:08:18.906Z,0.3
2019-01-08T20:10:19.001Z,0.4
2019-01-08T20:12:18.700Z,0.4
2019-01-08T20:14:19.391Z,0.3
2019-01-08T20:16:18.785Z,0.2
2019-01-08T20:18:18.574Z,0.2
2019-01-08T20:20:19.306Z,0.4
2019-01-08T20:22:18.976Z,0.8
2019-01-08T20:24:18.682Z,0.3
2019-01-08T20:26:19.011Z,0.2
2019-01-08T20:28:18.716Z,0.2
2019-01-08T20:30:19.447Z,0.2
2019-01-08T20:32:19.103Z,0.5
2019-01-08T20:34:26.369Z,0.2
2019-01-08T20:36:19.250Z,0.6
2019-01-08T20:38:18.952Z,0.7
2019-01-08T20:40:19.178Z,0.2
2019-01-08T20:42:18.851Z,0.4
2019-01-08T20:44:18.551Z,0.7
2019-01-08T20:46:18.866Z,0.2
2019-01-08T20:48:18.521Z,0.3
2019-01-08T20:50:19.259Z,0.5
2019-01-08T20:52:18.940Z,0.5
2019-01-08T20:54:18.659Z,0.2
2019-01-08T20:56:19.263Z,0.4
2019-01-08T20:58:26.749Z,0.1
2019-01-08T21:00:18.769Z,0.2
2019-01-08T21:02:18.487Z,0.6
2019-01-08T21:04:19.203Z,0.2
2019-01-08T21:06:18.645Z,0.4
2019-01-08T21:08:19.375Z,0.3
2019-01-08T21:10:18.606Z,0.5
2019-01-08T21:12:19.318Z,0.1
2019-01-08T21:14:19.019Z,0.3
2019-01-08T21:16:19.458Z,0.2
2019-01-08T21:18:19.202Z,0.4
2019-01-08T21:20:18.999Z,0.2
2019-01-08T21:22:18.662Z,0.2
2019-01-08T21:24:28.171Z,0.1
2019-01-08T21:26:18.910Z,0.3
2019-01-08T21:28:18.621Z,0.4
2019-01-08T21:30:19.300Z,0.5
2019-01-08T21:32:19.051Z,0.6
2019-01-08T21:34:18.764Z,0.4
2019-01-08T21:36:19.135Z,0.5
2019-01-08T21:38:18.853Z,0.2
2019-01-08T21:40:18.989Z,0.2
2019-01-08T21:42:18.698Z,0.5
2019-01-08T21:44:19.413Z,0.2
2019-01-08T21:46:18.856Z,0.3
2019-01-08T21:48:18.525Z,0.5
2019-01-08T21:50:19.276Z,0.1
2019-01-08T21:52:18.953Z,0.3
2019-01-08T21:54:18.773Z,0.1
2019-01-08T21:56:19.218Z,0.2
2019-01-08T21:58:18.916Z,0.3
2019-01-08T22:00:18.746Z,0.1
2019-01-08T22:02:18.591Z,0.1
2019-01-08T22:04:19.286Z,0.3
2019-01-08T22:06:18.888Z,0.3
2019-01-08T22:08:18.637Z,0.2
2019-01-08T22:10:18.902Z,0.4
2019-01-08T22:12:18.606Z,0.1
2019-01-08T22:14:19.394Z,0.1
2019-01-08T22:16:18.882Z,0.3
2019-01-08T22:18:18.695Z,0.2
2019-01-08T22:20:19.439Z,0.9
2019-01-08T22:22:19.252Z,0.8
2019-01-08T22:24:18.899Z,0.4
2019-01-08T22:26:19.337Z,0.2
2019-01-08T22:28:19.049Z,0.2
2019-01-08T22:30:18.833Z,0.6
2019-01-08T22:32:18.597Z,0.2
2019-01-08T22:34:19.282Z,0.4
2019-01-08T22:36:18.800Z,0.1
2019-01-08T22:38:18.502Z,0.3
2019-01-08T22:40:18.644Z,0.2
2019-01-08T22:42:19.276Z,0.1
2019-01-08T22:44:18.974Z,0.2
2019-01-08T22:46:19.329Z,0.2
2019-01-08T22:48:19.024Z,0
2019-01-08T22:50:18.722Z,0.2
2019-01-08T22:52:19.436Z,0.2
2019-01-08T22:54:19.129Z,0.3
2019-01-08T22:56:18.508Z,0.1
2019-01-08T22:58:19.895Z,0.2
2019-01-08T23:00:18.709Z,0.2
2019-01-08T23:02:19.400Z,0.2
2019-01-08T23:04:19.113Z,0.1
2019-01-08T23:06:18.871Z,0.2
2019-01-08T23:08:18.577Z,0.2
2019-01-08T23:10:18.727Z,0.3
2019-01-08T23:12:19.434Z,0.4
2019-01-08T23:14:19.099Z,0.1
2019-01-08T23:16:18.513Z,0.1
2019-01-08T23:18:19.238Z,0.4
2019-01-08T23:20:18.964Z,0.2
2019-01-08T23:22:18.628Z,0.2
2019-01-08T23:24:19.287Z,0.3
2019-01-08T23:26:18.623Z,0.3
2019-01-08T23:28:19.304Z,0.3
2019-01-08T23:30:19.035Z,0.1
2019-01-08T23:32:18.715Z,0.3
2019-01-08T23:34:19.368Z,0.1
2019-01-08T23:36:18.718Z,0.3
2019-01-08T23:38:19.398Z,0.1
2019-01-08T23:40:18.580Z,0.2
2019-01-08T23:42:19.226Z,0.1
2019-01-08T23:44:18.928Z,0.2
2019-01-08T23:46:18.884Z,0.1
2019-01-08T23:48:18.539Z,0.1
2019-01-08T23:50:19.269Z,0.2
2019-01-08T23:52:18.944Z,0.6
2019-01-08T23:54:18.642Z,0.1
2019-01-08T23:56:18.998Z,0.1
2019-01-08T23:58:18.693Z,0.3
